SAS1633 ENGM-EDDF
Flight info
| Callsign | SAS1633 |
|---|---|
| Flight time | N/A |
| Altitude | 37000 |
| Route | VIPPA DCT RAXLU DCT RIMET/N0461F310 T157 KOKEB/N0422F230 T157 KERAX KERAX5A |
| Aircraft | A319/M-SDE3FGIJ1RWXY/LB1 |
Departure
| Time | 2026-05-05 14:32 |
|---|---|
| Airport | Oslo-Gardermoen International Airport (ENGM) |
Arrival
| Time | N/A |
|---|---|
| Airport | Frankfurt Main Airport (EDDF) |
| Time | Latitude | Longitude | Altitude | Speed | Heading |
|---|---|---|---|---|---|
| 2026-05-05 13:58 | 60.19277 | 11.10651 | 688 ft | 0 kts | 339° |
| 2026-05-05 14:23 | 60.19265 | 11.10659 | 688 ft | 2 kts | 347° |
| 2026-05-05 14:23 | 60.19250 | 11.10665 | 688 ft | 2 kts | 354° |
| 2026-05-05 14:23 | 60.19236 | 11.10666 | 688 ft | 2 kts | 1° |
| 2026-05-05 14:23 | 60.19221 | 11.10664 | 688 ft | 0 kts | 9° |
| 2026-05-05 14:26 | 60.19223 | 11.10665 | 687 ft | 1 kts | 16° |
| 2026-05-05 14:26 | 60.19229 | 11.10723 | 687 ft | 7 kts | 107° |
| 2026-05-05 14:26 | 60.19210 | 11.10841 | 687 ft | 9 kts | 108° |
| 2026-05-05 14:26 | 60.19188 | 11.10978 | 687 ft | 13 kts | 109° |
| 2026-05-05 14:27 | 60.19123 | 11.11078 | 694 ft | 14 kts | 189° |
| 2026-05-05 14:27 | 60.19002 | 11.11009 | 697 ft | 17 kts | 195° |
| 2026-05-05 14:27 | 60.18879 | 11.10934 | 695 ft | 18 kts | 195° |
| 2026-05-05 14:27 | 60.18744 | 11.10856 | 695 ft | 18 kts | 197° |
| 2026-05-05 14:28 | 60.18629 | 11.10791 | 697 ft | 17 kts | 196° |
| 2026-05-05 14:28 | 60.18507 | 11.10722 | 700 ft | 16 kts | 194° |
| 2026-05-05 14:28 | 60.18375 | 11.10647 | 697 ft | 23 kts | 196° |
| 2026-05-05 14:28 | 60.18206 | 11.10545 | 692 ft | 25 kts | 195° |
| 2026-05-05 14:29 | 60.18040 | 11.10449 | 687 ft | 22 kts | 197° |
| 2026-05-05 14:29 | 60.17887 | 11.10359 | 685 ft | 22 kts | 195° |
| 2026-05-05 14:29 | 60.17750 | 11.10284 | 684 ft | 13 kts | 183° |
| 2026-05-05 14:29 | 60.17703 | 11.10432 | 684 ft | 13 kts | 105° |
| 2026-05-05 14:30 | 60.17675 | 11.10633 | 682 ft | 15 kts | 105° |
| 2026-05-05 14:30 | 60.17664 | 11.10822 | 681 ft | 10 kts | 47° |
| 2026-05-05 14:30 | 60.17706 | 11.10858 | 682 ft | 3 kts | 15° |
| 2026-05-05 14:30 | 60.17729 | 11.10870 | 682 ft | 2 kts | 15° |
| 2026-05-05 14:31 | 60.17753 | 11.10883 | 683 ft | 8 kts | 15° |
| 2026-05-05 14:31 | 60.18028 | 11.11047 | 689 ft | 76 kts | 15° |
| 2026-05-05 14:31 | 60.18779 | 11.11481 | 706 ft | 138 kts | 16° |
| 2026-05-05 14:31 | 60.19868 | 11.12082 | 977 ft | 166 kts | 13° |
| 2026-05-05 14:32 | 60.20920 | 11.13013 | 1593 ft | 170 kts | 43° |
| 2026-05-05 14:32 | 60.21430 | 11.15177 | 2171 ft | 176 kts | 80° |
| 2026-05-05 14:32 | 60.21555 | 11.17634 | 2803 ft | 179 kts | 84° |
| 2026-05-05 14:32 | 60.21690 | 11.20161 | 3440 ft | 181 kts | 82° |
| 2026-05-05 14:33 | 60.21878 | 11.22693 | 4046 ft | 186 kts | 80° |
| 2026-05-05 14:33 | 60.22125 | 11.25491 | 4507 ft | 202 kts | 77° |
| 2026-05-05 14:33 | 60.22290 | 11.28458 | 4925 ft | 221 kts | 95° |
| 2026-05-05 14:33 | 60.21693 | 11.31430 | 5297 ft | 240 kts | 133° |
| 2026-05-05 14:34 | 60.20295 | 11.33275 | 5785 ft | 251 kts | 166° |
| 2026-05-05 14:34 | 60.18516 | 11.34168 | 6339 ft | 267 kts | 170° |
| 2026-05-05 14:34 | 60.16672 | 11.34942 | 7073 ft | 274 kts | 176° |
| 2026-05-05 14:34 | 60.14791 | 11.34662 | 8091 ft | 267 kts | 198° |
| 2026-05-05 14:35 | 60.13060 | 11.33095 | 8948 ft | 268 kts | 210° |
| 2026-05-05 14:35 | 60.11386 | 11.31223 | 9752 ft | 271 kts | 210° |
| 2026-05-05 14:35 | 60.09714 | 11.29342 | 10460 ft | 277 kts | 209° |
| 2026-05-05 14:35 | 60.07980 | 11.27406 | 10826 ft | 294 kts | 209° |
| 2026-05-05 14:36 | 60.06106 | 11.25342 | 11146 ft | 313 kts | 209° |
| 2026-05-05 14:36 | 60.04112 | 11.23156 | 11452 ft | 330 kts | 209° |
| 2026-05-05 14:36 | 60.01996 | 11.20845 | 11942 ft | 341 kts | 208° |
| 2026-05-05 14:36 | 59.99879 | 11.18545 | 12668 ft | 343 kts | 208° |
| 2026-05-05 14:37 | 59.97729 | 11.16213 | 13383 ft | 345 kts | 208° |
| 2026-05-05 14:37 | 59.95581 | 11.13888 | 14056 ft | 348 kts | 208° |
| 2026-05-05 14:37 | 59.93402 | 11.11533 | 14717 ft | 351 kts | 208° |
| 2026-05-05 14:37 | 59.91222 | 11.09180 | 15353 ft | 354 kts | 208° |
| 2026-05-05 14:38 | 59.89025 | 11.06812 | 15871 ft | 359 kts | 208° |
| 2026-05-05 14:38 | 59.86785 | 11.04415 | 16437 ft | 363 kts | 208° |
| 2026-05-05 14:38 | 59.84536 | 11.02011 | 17041 ft | 365 kts | 209° |
| 2026-05-05 14:38 | 59.82233 | 10.99549 | 17678 ft | 367 kts | 209° |
| 2026-05-05 14:39 | 59.79962 | 10.97120 | 18304 ft | 367 kts | 209° |
| 2026-05-05 14:39 | 59.77675 | 10.94675 | 18909 ft | 368 kts | 209° |
| 2026-05-05 14:39 | 59.75372 | 10.92216 | 19502 ft | 369 kts | 209° |
| 2026-05-05 14:39 | 59.73093 | 10.89785 | 20035 ft | 371 kts | 209° |
| 2026-05-05 14:40 | 59.70772 | 10.87311 | 20463 ft | 376 kts | 209° |
| 2026-05-05 14:40 | 59.68447 | 10.84836 | 20977 ft | 377 kts | 210° |
| 2026-05-05 14:40 | 59.66119 | 10.82363 | 21512 ft | 378 kts | 210° |
| 2026-05-05 14:40 | 59.63791 | 10.79891 | 22022 ft | 378 kts | 210° |
| 2026-05-05 14:41 | 59.61454 | 10.77417 | 22506 ft | 380 kts | 210° |
| 2026-05-05 14:41 | 59.59120 | 10.74949 | 22919 ft | 382 kts | 210° |
| 2026-05-05 14:41 | 59.56731 | 10.72428 | 23239 ft | 387 kts | 209° |
| 2026-05-05 14:41 | 59.54278 | 10.70020 | 23614 ft | 391 kts | 207° |
| 2026-05-05 14:42 | 59.51777 | 10.67883 | 24011 ft | 393 kts | 204° |
| 2026-05-05 14:42 | 59.49190 | 10.65860 | 24403 ft | 395 kts | 204° |
| 2026-05-05 14:42 | 59.46615 | 10.63814 | 24778 ft | 398 kts | 204° |
| 2026-05-05 14:42 | 59.44010 | 10.61741 | 25146 ft | 400 kts | 204° |
| 2026-05-05 14:43 | 59.41409 | 10.59675 | 25505 ft | 402 kts | 204° |
| 2026-05-05 14:43 | 59.38787 | 10.57599 | 25854 ft | 404 kts | 204° |
| 2026-05-05 14:43 | 59.36171 | 10.55533 | 26188 ft | 406 kts | 204° |
| 2026-05-05 14:43 | 59.33513 | 10.53438 | 26523 ft | 407 kts | 204° |
| 2026-05-05 14:44 | 59.30857 | 10.51349 | 26959 ft | 406 kts | 204° |
| 2026-05-05 14:44 | 59.28214 | 10.49274 | 27425 ft | 404 kts | 204° |
| 2026-05-05 14:44 | 59.25611 | 10.47234 | 27865 ft | 403 kts | 204° |
| 2026-05-05 14:44 | 59.22981 | 10.45175 | 28292 ft | 402 kts | 205° |
| 2026-05-05 14:45 | 59.20350 | 10.43118 | 28712 ft | 401 kts | 205° |
| 2026-05-05 14:45 | 59.17738 | 10.41079 | 29124 ft | 400 kts | 205° |
| 2026-05-05 14:45 | 59.15145 | 10.39057 | 29528 ft | 398 kts | 205° |
| 2026-05-05 14:45 | 59.12529 | 10.37019 | 29927 ft | 397 kts | 205° |
| 2026-05-05 14:46 | 59.09937 | 10.35002 | 30316 ft | 396 kts | 205° |
| 2026-05-05 14:46 | 59.07325 | 10.32970 | 30704 ft | 395 kts | 204° |
| 2026-05-05 14:46 | 59.04750 | 10.30966 | 31080 ft | 394 kts | 204° |
| 2026-05-05 14:46 | 59.02132 | 10.28975 | 31448 ft | 394 kts | 203° |
| 2026-05-05 14:47 | 58.99462 | 10.27241 | 31768 ft | 396 kts | 200° |
| 2026-05-05 14:47 | 58.96725 | 10.25796 | 32026 ft | 400 kts | 198° |
| 2026-05-05 14:47 | 58.93964 | 10.24658 | 32250 ft | 404 kts | 195° |
| 2026-05-05 14:47 | 58.91108 | 10.23808 | 32475 ft | 409 kts | 192° |
| 2026-05-05 14:48 | 58.88196 | 10.23278 | 32690 ft | 414 kts | 189° |
| 2026-05-05 14:48 | 58.85226 | 10.23082 | 32914 ft | 420 kts | 186° |
| 2026-05-05 14:48 | 58.82227 | 10.23128 | 33239 ft | 420 kts | 186° |
| 2026-05-05 14:48 | 58.79267 | 10.23161 | 33594 ft | 419 kts | 186° |
| 2026-05-05 14:49 | 58.76296 | 10.23188 | 33935 ft | 418 kts | 186° |
| 2026-05-05 14:49 | 58.73393 | 10.23214 | 34250 ft | 417 kts | 186° |
| 2026-05-05 14:49 | 58.70442 | 10.23242 | 34557 ft | 417 kts | 186° |
| 2026-05-05 14:49 | 58.67501 | 10.23272 | 34854 ft | 416 kts | 186° |
| 2026-05-05 14:50 | 58.64584 | 10.23303 | 35138 ft | 416 kts | 186° |
| 2026-05-05 14:50 | 58.61669 | 10.23334 | 35382 ft | 416 kts | 186° |
| 2026-05-05 14:50 | 58.58753 | 10.23365 | 35589 ft | 417 kts | 186° |
| 2026-05-05 14:50 | 58.55762 | 10.23397 | 35787 ft | 418 kts | 186° |
| 2026-05-05 14:51 | 58.52816 | 10.23429 | 35978 ft | 419 kts | 186° |
| 2026-05-05 14:51 | 58.49830 | 10.23463 | 36165 ft | 420 kts | 186° |
| 2026-05-05 14:51 | 58.46878 | 10.23496 | 36337 ft | 421 kts | 186° |
| 2026-05-05 14:51 | 58.43903 | 10.23530 | 36497 ft | 422 kts | 186° |
| 2026-05-05 14:52 | 58.40917 | 10.23564 | 36648 ft | 423 kts | 186° |
| 2026-05-05 14:52 | 58.37929 | 10.23598 | 36794 ft | 423 kts | 186° |
| 2026-05-05 14:52 | 58.34942 | 10.23631 | 36901 ft | 425 kts | 186° |
| 2026-05-05 14:52 | 58.31971 | 10.23665 | 36906 ft | 425 kts | 186° |
| 2026-05-05 14:53 | 58.25967 | 10.23734 | 36913 ft | 426 kts | 186° |
| 2026-05-05 14:53 | 58.19988 | 10.23803 | 36916 ft | 426 kts | 186° |
| 2026-05-05 14:54 | 58.13998 | 10.23870 | 36925 ft | 426 kts | 186° |
| 2026-05-05 14:54 | 58.08030 | 10.23937 | 36940 ft | 426 kts | 186° |
| 2026-05-05 14:55 | 58.02020 | 10.24004 | 36955 ft | 426 kts | 186° |
| 2026-05-05 14:55 | 57.96039 | 10.24070 | 36964 ft | 426 kts | 186° |
| 2026-05-05 14:56 | 57.90055 | 10.24136 | 36968 ft | 426 kts | 186° |
| 2026-05-05 14:56 | 57.84116 | 10.24206 | 36969 ft | 426 kts | 186° |
| 2026-05-05 14:57 | 57.78147 | 10.24274 | 36969 ft | 426 kts | 186° |
| 2026-05-05 14:57 | 57.72156 | 10.24342 | 36970 ft | 426 kts | 186° |
| 2026-05-05 14:58 | 57.66063 | 10.24408 | 36969 ft | 426 kts | 186° |
| 2026-05-05 14:58 | 57.59989 | 10.24474 | 36969 ft | 426 kts | 186° |
| 2026-05-05 14:59 | 57.53985 | 10.24539 | 36969 ft | 426 kts | 186° |
| 2026-05-05 14:59 | 57.47980 | 10.24604 | 36970 ft | 426 kts | 186° |
| 2026-05-05 15:00 | 57.43014 | 10.24657 | 36969 ft | 426 kts | 186° |
| 2026-05-05 15:00 | 57.35974 | 10.24732 | 36969 ft | 426 kts | 186° |
| 2026-05-05 15:01 | 57.29964 | 10.24795 | 36970 ft | 426 kts | 186° |
| 2026-05-05 15:01 | 57.23956 | 10.24859 | 36969 ft | 426 kts | 186° |
| 2026-05-05 15:02 | 57.17994 | 10.24921 | 36969 ft | 426 kts | 186° |
| 2026-05-05 15:02 | 57.11985 | 10.24985 | 36969 ft | 426 kts | 186° |
| 2026-05-05 15:03 | 57.06017 | 10.25052 | 36966 ft | 431 kts | 186° |
| 2026-05-05 15:03 | 56.99874 | 10.25114 | 36964 ft | 440 kts | 186° |
| 2026-05-05 15:04 | 56.93642 | 10.25173 | 36966 ft | 449 kts | 186° |
| 2026-05-05 15:04 | 56.87312 | 10.25241 | 36969 ft | 450 kts | 186° |
| 2026-05-05 15:05 | 56.77781 | 10.25352 | 36970 ft | 451 kts | 186° |
| 2026-05-05 15:06 | 56.71402 | 10.25421 | 36970 ft | 451 kts | 186° |
| 2026-05-05 15:06 | 56.64996 | 10.25488 | 36970 ft | 451 kts | 186° |
| 2026-05-05 15:07 | 56.58592 | 10.25554 | 36970 ft | 451 kts | 186° |
| 2026-05-05 15:07 | 56.52124 | 10.25620 | 36970 ft | 451 kts | 186° |
| 2026-05-05 15:08 | 56.45706 | 10.25685 | 36970 ft | 451 kts | 186° |
| 2026-05-05 15:08 | 56.39360 | 10.25750 | 36970 ft | 451 kts | 186° |
| 2026-05-05 15:09 | 56.33010 | 10.25814 | 36970 ft | 451 kts | 186° |
| 2026-05-05 15:09 | 56.26692 | 10.25877 | 36970 ft | 451 kts | 186° |
| 2026-05-05 15:10 | 56.20402 | 10.25941 | 36970 ft | 451 kts | 186° |
| 2026-05-05 15:10 | 56.14094 | 10.26004 | 36970 ft | 451 kts | 186° |
| 2026-05-05 15:11 | 56.07780 | 10.26067 | 36970 ft | 451 kts | 186° |
| 2026-05-05 15:11 | 56.01413 | 10.26130 | 36970 ft | 451 kts | 186° |
| 2026-05-05 15:12 | 55.95103 | 10.26193 | 36970 ft | 451 kts | 186° |
| 2026-05-05 15:12 | 55.88740 | 10.26256 | 36969 ft | 451 kts | 186° |
| 2026-05-05 15:13 | 55.82409 | 10.26324 | 36970 ft | 451 kts | 186° |
| 2026-05-05 15:13 | 55.76107 | 10.26389 | 36970 ft | 451 kts | 186° |
| 2026-05-05 15:14 | 55.69771 | 10.26452 | 36970 ft | 451 kts | 186° |
| 2026-05-05 15:14 | 55.63393 | 10.26514 | 36970 ft | 451 kts | 186° |
| 2026-05-05 15:15 | 55.57100 | 10.26575 | 36970 ft | 451 kts | 186° |
| 2026-05-05 15:15 | 55.50742 | 10.26636 | 36970 ft | 451 kts | 186° |
| 2026-05-05 15:16 | 55.44464 | 10.26697 | 36970 ft | 451 kts | 186° |
| 2026-05-05 15:16 | 55.38165 | 10.26757 | 36970 ft | 451 kts | 186° |
| 2026-05-05 15:17 | 55.31871 | 10.26817 | 36970 ft | 451 kts | 186° |
| 2026-05-05 15:17 | 55.25577 | 10.26876 | 36970 ft | 451 kts | 186° |
| 2026-05-05 15:18 | 55.19246 | 10.26936 | 36970 ft | 451 kts | 186° |
| 2026-05-05 15:18 | 55.12879 | 10.26995 | 36970 ft | 451 kts | 186° |
| 2026-05-05 15:19 | 55.06537 | 10.27054 | 36969 ft | 451 kts | 186° |
| 2026-05-05 15:19 | 55.00205 | 10.27119 | 36967 ft | 451 kts | 187° |
| 2026-05-05 15:20 | 54.93817 | 10.27191 | 36962 ft | 453 kts | 188° |
| 2026-05-05 15:20 | 54.87427 | 10.27251 | 36955 ft | 456 kts | 189° |
| 2026-05-05 15:21 | 54.81003 | 10.27296 | 36950 ft | 457 kts | 189° |
| 2026-05-05 15:21 | 54.74601 | 10.27345 | 36947 ft | 457 kts | 189° |
| 2026-05-05 15:22 | 54.68173 | 10.27353 | 36945 ft | 456 kts | 190° |
| 2026-05-05 15:22 | 54.61775 | 10.27242 | 36945 ft | 456 kts | 191° |
| 2026-05-05 15:23 | 54.55356 | 10.27122 | 36945 ft | 456 kts | 191° |
| 2026-05-05 15:23 | 54.48939 | 10.27007 | 36945 ft | 456 kts | 191° |
| 2026-05-05 15:24 | 54.42497 | 10.26894 | 36945 ft | 456 kts | 191° |
| 2026-05-05 15:24 | 54.35978 | 10.26781 | 36945 ft | 456 kts | 191° |
| 2026-05-05 15:25 | 54.29518 | 10.26669 | 36945 ft | 456 kts | 191° |
| 2026-05-05 15:25 | 54.23031 | 10.26558 | 36945 ft | 456 kts | 191° |
| 2026-05-05 15:26 | 54.16537 | 10.26446 | 36945 ft | 456 kts | 191° |
| 2026-05-05 15:26 | 54.09998 | 10.26335 | 36945 ft | 456 kts | 191° |
| 2026-05-05 15:27 | 54.03482 | 10.26224 | 36945 ft | 456 kts | 191° |
| 2026-05-05 15:27 | 53.97029 | 10.26114 | 36943 ft | 456 kts | 191° |
| 2026-05-05 15:28 | 53.90585 | 10.26005 | 36941 ft | 456 kts | 191° |